sensor_id;sensor_type;location;lat;lon;timestamp;P1;durP1;ratioP1;P2;durP2;ratioP2
23608;SDS011;11982;50.810;4.442;2023-04-29T00:00:59;106.13;;;47.45;;
23608;SDS011;11982;50.810;4.442;2023-04-29T00:03:24;104.15;;;45.28;;
23608;SDS011;11982;50.810;4.442;2023-04-29T00:05:52;100.22;;;44.65;;
23608;SDS011;11982;50.810;4.442;2023-04-29T00:08:18;97.78;;;45.13;;
23608;SDS011;11982;50.810;4.442;2023-04-29T00:10:44;74.65;;;33.55;;
23608;SDS011;11982;50.810;4.442;2023-04-29T00:13:10;96.75;;;43.45;;
23608;SDS011;11982;50.810;4.442;2023-04-29T00:15:37;99.10;;;43.90;;
23608;SDS011;11982;50.810;4.442;2023-04-29T00:18:04;102.70;;;46.33;;
23608;SDS011;11982;50.810;4.442;2023-04-29T00:20:29;103.97;;;47.83;;
23608;SDS011;11982;50.810;4.442;2023-04-29T00:22:55;101.50;;;49.75;;
23608;SDS011;11982;50.810;4.442;2023-04-29T00:25:21;95.18;;;46.42;;
23608;SDS011;11982;50.810;4.442;2023-04-29T00:31:08;108.47;;;45.97;;
23608;SDS011;11982;50.810;4.442;2023-04-29T00:33:34;84.45;;;40.17;;
23608;SDS011;11982;50.810;4.442;2023-04-29T00:36:01;81.28;;;39.47;;
23608;SDS011;11982;50.810;4.442;2023-04-29T00:38:27;81.97;;;39.88;;
23608;SDS011;11982;50.810;4.442;2023-04-29T00:40:53;83.70;;;39.63;;
23608;SDS011;11982;50.810;4.442;2023-04-29T00:43:19;80.88;;;38.75;;
23608;SDS011;11982;50.810;4.442;2023-04-29T00:45:45;71.28;;;35.78;;
23608;SDS011;11982;50.810;4.442;2023-04-29T00:48:11;76.75;;;37.67;;
23608;SDS011;11982;50.810;4.442;2023-04-29T00:50:39;75.18;;;35.17;;
23608;SDS011;11982;50.810;4.442;2023-04-29T00:53:06;76.47;;;38.88;;
23608;SDS011;11982;50.810;4.442;2023-04-29T00:55:32;76.30;;;39.05;;
23608;SDS011;11982;50.810;4.442;2023-04-29T01:01:21;75.32;;;36.05;;
23608;SDS011;11982;50.810;4.442;2023-04-29T01:03:47;81.95;;;38.58;;
23608;SDS011;11982;50.810;4.442;2023-04-29T01:06:34;77.97;;;36.38;;
23608;SDS011;11982;50.810;4.442;2023-04-29T01:12:20;67.38;;;31.60;;
23608;SDS011;11982;50.810;4.442;2023-04-29T01:15:26;80.38;;;38.10;;
23608;SDS011;11982;50.810;4.442;2023-04-29T01:17:50;74.03;;;35.40;;
23608;SDS011;11982;50.810;4.442;2023-04-29T01:20:24;77.20;;;36.72;;
23608;SDS011;11982;50.810;4.442;2023-04-29T01:22:50;75.60;;;36.65;;
23608;SDS011;11982;50.810;4.442;2023-04-29T01:25:16;73.35;;;35.67;;
23608;SDS011;11982;50.810;4.442;2023-04-29T01:30:48;74.70;;;34.92;;
23608;SDS011;11982;50.810;4.442;2023-04-29T01:38:56;77.82;;;36.92;;
23608;SDS011;11982;50.810;4.442;2023-04-29T01:44:31;73.85;;;31.80;;
23608;SDS011;11982;50.810;4.442;2023-04-29T01:46:58;87.40;;;38.60;;
23608;SDS011;11982;50.810;4.442;2023-04-29T01:49:25;83.65;;;37.92;;
23608;SDS011;11982;50.810;4.442;2023-04-29T01:51:52;89.45;;;39.15;;
23608;SDS011;11982;50.810;4.442;2023-04-29T01:54:18;86.30;;;40.47;;
23608;SDS011;11982;50.810;4.442;2023-04-29T02:00:06;102.45;;;43.67;;
23608;SDS011;11982;50.810;4.442;2023-04-29T02:02:33;99.45;;;44.00;;
23608;SDS011;11982;50.810;4.442;2023-04-29T02:04:59;113.07;;;47.15;;
23608;SDS011;11982;50.810;4.442;2023-04-29T02:07:24;103.20;;;46.92;;
23608;SDS011;11982;50.810;4.442;2023-04-29T02:09:50;107.85;;;47.72;;
23608;SDS011;11982;50.810;4.442;2023-04-29T02:15:37;118.18;;;50.78;;
23608;SDS011;11982;50.810;4.442;2023-04-29T02:18:03;120.68;;;51.15;;
23608;SDS011;11982;50.810;4.442;2023-04-29T02:20:30;114.05;;;49.70;;
23608;SDS011;11982;50.810;4.442;2023-04-29T02:22:56;115.22;;;51.55;;
23608;SDS011;11982;50.810;4.442;2023-04-29T02:25:21;120.38;;;51.53;;
23608;SDS011;11982;50.810;4.442;2023-04-29T02:31:09;94.00;;;44.38;;
23608;SDS011;11982;50.810;4.442;2023-04-29T02:33:34;97.25;;;45.20;;
23608;SDS011;11982;50.810;4.442;2023-04-29T02:36:00;99.75;;;46.05;;
23608;SDS011;11982;50.810;4.442;2023-04-29T02:38:26;102.38;;;45.70;;
23608;SDS011;11982;50.810;4.442;2023-04-29T02:40:52;85.78;;;42.53;;
23608;SDS011;11982;50.810;4.442;2023-04-29T02:46:39;84.80;;;40.25;;
23608;SDS011;11982;50.810;4.442;2023-04-29T02:49:09;77.15;;;39.92;;
23608;SDS011;11982;50.810;4.442;2023-04-29T02:51:35;74.10;;;36.10;;
23608;SDS011;11982;50.810;4.442;2023-04-29T02:54:01;77.25;;;37.33;;
23608;SDS011;11982;50.810;4.442;2023-04-29T02:56:27;75.63;;;39.03;;
23608;SDS011;11982;50.810;4.442;2023-04-29T03:02:15;66.90;;;33.20;;
23608;SDS011;11982;50.810;4.442;2023-04-29T03:04:41;69.78;;;33.33;;
23608;SDS011;11982;50.810;4.442;2023-04-29T03:07:07;70.00;;;34.25;;
23608;SDS011;11982;50.810;4.442;2023-04-29T03:09:32;65.65;;;33.80;;
23608;SDS011;11982;50.810;4.442;2023-04-29T03:11:58;61.40;;;32.83;;
23608;SDS011;11982;50.810;4.442;2023-04-29T03:17:46;59.90;;;31.33;;
23608;SDS011;11982;50.810;4.442;2023-04-29T03:20:12;62.15;;;31.38;;
23608;SDS011;11982;50.810;4.442;2023-04-29T03:22:38;46.78;;;26.27;;
23608;SDS011;11982;50.810;4.442;2023-04-29T03:25:04;48.63;;;27.23;;
23608;SDS011;11982;50.810;4.442;2023-04-29T03:27:30;47.38;;;25.15;;
23608;SDS011;11982;50.810;4.442;2023-04-29T03:33:17;54.83;;;28.08;;
23608;SDS011;11982;50.810;4.442;2023-04-29T03:35:43;53.90;;;29.40;;
23608;SDS011;11982;50.810;4.442;2023-04-29T03:38:09;50.08;;;27.48;;
23608;SDS011;11982;50.810;4.442;2023-04-29T03:40:35;61.05;;;32.03;;
23608;SDS011;11982;50.810;4.442;2023-04-29T03:43:01;59.78;;;32.95;;
23608;SDS011;11982;50.810;4.442;2023-04-29T03:45:27;47.20;;;25.05;;
23608;SDS011;11982;50.810;4.442;2023-04-29T03:47:53;52.63;;;28.17;;
23608;SDS011;11982;50.810;4.442;2023-04-29T03:50:19;37.33;;;19.50;;
23608;SDS011;11982;50.810;4.442;2023-04-29T03:52:45;44.00;;;21.67;;
23608;SDS011;11982;50.810;4.442;2023-04-29T03:55:11;30.67;;;19.70;;
23608;SDS011;11982;50.810;4.442;2023-04-29T03:57:37;38.42;;;20.27;;
23608;SDS011;11982;50.810;4.442;2023-04-29T04:03:24;35.08;;;19.73;;
23608;SDS011;11982;50.810;4.442;2023-04-29T04:05:52;35.00;;;20.52;;
23608;SDS011;11982;50.810;4.442;2023-04-29T04:08:17;37.80;;;21.17;;
23608;SDS011;11982;50.810;4.442;2023-04-29T04:10:43;52.47;;;29.08;;
23608;SDS011;11982;50.810;4.442;2023-04-29T04:13:08;61.80;;;31.63;;
23608;SDS011;11982;50.810;4.442;2023-04-29T04:18:56;64.55;;;34.83;;
23608;SDS011;11982;50.810;4.442;2023-04-29T04:21:22;74.82;;;37.40;;
23608;SDS011;11982;50.810;4.442;2023-04-29T04:23:47;69.70;;;36.55;;
23608;SDS011;11982;50.810;4.442;2023-04-29T04:26:13;84.10;;;40.22;;
23608;SDS011;11982;50.810;4.442;2023-04-29T04:28:39;81.28;;;40.53;;
23608;SDS011;11982;50.810;4.442;2023-04-29T04:31:04;83.68;;;40.88;;
23608;SDS011;11982;50.810;4.442;2023-04-29T04:33:30;82.65;;;40.50;;
23608;SDS011;11982;50.810;4.442;2023-04-29T04:35:56;79.40;;;40.83;;
23608;SDS011;11982;50.810;4.442;2023-04-29T04:38:21;89.80;;;42.42;;
23608;SDS011;11982;50.810;4.442;2023-04-29T04:40:49;86.10;;;41.83;;
23608;SDS011;11982;50.810;4.442;2023-04-29T04:43:15;80.32;;;43.13;;
23608;SDS011;11982;50.810;4.442;2023-04-29T04:49:03;93.32;;;43.15;;
23608;SDS011;11982;50.810;4.442;2023-04-29T04:51:29;97.70;;;43.85;;
23608;SDS011;11982;50.810;4.442;2023-04-29T04:53:55;87.53;;;42.35;;
23608;SDS011;11982;50.810;4.442;2023-04-29T04:56:21;85.45;;;42.75;;
23608;SDS011;11982;50.810;4.442;2023-04-29T04:58:46;79.85;;;39.78;;
23608;SDS011;11982;50.810;4.442;2023-04-29T05:01:12;67.78;;;36.15;;
23608;SDS011;11982;50.810;4.442;2023-04-29T05:03:38;73.63;;;34.40;;
23608;SDS011;11982;50.810;4.442;2023-04-29T05:06:04;76.50;;;37.60;;
23608;SDS011;11982;50.810;4.442;2023-04-29T05:08:29;69.72;;;35.78;;
23608;SDS011;11982;50.810;4.442;2023-04-29T05:10:55;73.57;;;35.75;;
23608;SDS011;11982;50.810;4.442;2023-04-29T05:13:22;65.20;;;33.88;;
23608;SDS011;11982;50.810;4.442;2023-04-29T05:19:11;67.90;;;34.85;;
23608;SDS011;11982;50.810;4.442;2023-04-29T05:21:37;68.80;;;34.83;;
23608;SDS011;11982;50.810;4.442;2023-04-29T05:24:02;65.45;;;33.38;;
23608;SDS011;11982;50.810;4.442;2023-04-29T05:26:28;62.78;;;34.38;;
23608;SDS011;11982;50.810;4.442;2023-04-29T05:28:54;54.88;;;30.67;;
23608;SDS011;11982;50.810;4.442;2023-04-29T05:34:42;52.25;;;28.20;;
23608;SDS011;11982;50.810;4.442;2023-04-29T05:37:08;54.35;;;28.50;;
23608;SDS011;11982;50.810;4.442;2023-04-29T05:39:34;55.60;;;29.02;;
23608;SDS011;11982;50.810;4.442;2023-04-29T05:42:00;52.30;;;28.10;;
23608;SDS011;11982;50.810;4.442;2023-04-29T05:44:27;49.53;;;28.55;;
23608;SDS011;11982;50.810;4.442;2023-04-29T05:46:52;53.30;;;28.90;;
23608;SDS011;11982;50.810;4.442;2023-04-29T05:49:19;51.70;;;27.98;;
23608;SDS011;11982;50.810;4.442;2023-04-29T05:51:44;57.13;;;30.02;;
23608;SDS011;11982;50.810;4.442;2023-04-29T05:54:10;58.95;;;30.92;;
23608;SDS011;11982;50.810;4.442;2023-04-29T05:56:35;59.75;;;31.90;;
23608;SDS011;11982;50.810;4.442;2023-04-29T05:59:01;56.10;;;30.83;;
23608;SDS011;11982;50.810;4.442;2023-04-29T06:04:49;61.88;;;31.73;;
23608;SDS011;11982;50.810;4.442;2023-04-29T06:07:15;61.45;;;32.20;;
23608;SDS011;11982;50.810;4.442;2023-04-29T06:09:42;63.13;;;32.83;;
23608;SDS011;11982;50.810;4.442;2023-04-29T06:12:08;71.78;;;33.17;;
23608;SDS011;11982;50.810;4.442;2023-04-29T06:14:34;59.45;;;33.25;;
23608;SDS011;11982;50.810;4.442;2023-04-29T06:16:59;70.93;;;35.10;;
23608;SDS011;11982;50.810;4.442;2023-04-29T06:19:26;57.25;;;33.47;;
23608;SDS011;11982;50.810;4.442;2023-04-29T06:21:51;71.07;;;33.22;;
23608;SDS011;11982;50.810;4.442;2023-04-29T06:24:17;61.05;;;32.15;;
23608;SDS011;11982;50.810;4.442;2023-04-29T06:26:43;58.78;;;32.97;;
23608;SDS011;11982;50.810;4.442;2023-04-29T06:29:08;58.10;;;33.83;;
23608;SDS011;11982;50.810;4.442;2023-04-29T06:34:56;73.43;;;37.00;;
23608;SDS011;11982;50.810;4.442;2023-04-29T06:37:22;67.60;;;36.05;;
23608;SDS011;11982;50.810;4.442;2023-04-29T06:39:47;70.22;;;36.70;;
23608;SDS011;11982;50.810;4.442;2023-04-29T06:42:13;69.20;;;36.20;;
23608;SDS011;11982;50.810;4.442;2023-04-29T06:44:39;63.28;;;36.35;;
23608;SDS011;11982;50.810;4.442;2023-04-29T06:50:26;58.90;;;34.33;;
23608;SDS011;11982;50.810;4.442;2023-04-29T06:52:52;67.10;;;35.55;;
23608;SDS011;11982;50.810;4.442;2023-04-29T06:55:18;59.90;;;34.28;;
23608;SDS011;11982;50.810;4.442;2023-04-29T06:57:43;53.38;;;32.50;;
23608;SDS011;11982;50.810;4.442;2023-04-29T07:00:09;65.47;;;34.58;;
23608;SDS011;11982;50.810;4.442;2023-04-29T07:02:35;61.42;;;33.35;;
23608;SDS011;11982;50.810;4.442;2023-04-29T07:05:02;60.50;;;34.08;;
23608;SDS011;11982;50.810;4.442;2023-04-29T07:07:29;58.03;;;34.10;;
23608;SDS011;11982;50.810;4.442;2023-04-29T07:09:54;58.25;;;32.60;;
23608;SDS011;11982;50.810;4.442;2023-04-29T07:12:20;62.95;;;34.60;;
23608;SDS011;11982;50.810;4.442;2023-04-29T07:14:46;57.03;;;33.10;;
23608;SDS011;11982;50.810;4.442;2023-04-29T07:20:35;59.85;;;32.85;;
23608;SDS011;11982;50.810;4.442;2023-04-29T07:23:01;58.28;;;33.60;;
23608;SDS011;11982;50.810;4.442;2023-04-29T07:25:26;60.13;;;33.75;;
23608;SDS011;11982;50.810;4.442;2023-04-29T07:27:53;55.30;;;34.13;;
23608;SDS011;11982;50.810;4.442;2023-04-29T07:30:20;62.75;;;34.22;;
23608;SDS011;11982;50.810;4.442;2023-04-29T07:32:45;63.78;;;33.70;;
23608;SDS011;11982;50.810;4.442;2023-04-29T07:35:11;59.90;;;34.95;;
23608;SDS011;11982;50.810;4.442;2023-04-29T07:37:37;67.35;;;36.03;;
23608;SDS011;11982;50.810;4.442;2023-04-29T07:40:02;61.15;;;34.45;;
23608;SDS011;11982;50.810;4.442;2023-04-29T07:42:28;62.45;;;35.05;;
23608;SDS011;11982;50.810;4.442;2023-04-29T07:44:54;68.95;;;35.67;;
23608;SDS011;11982;50.810;4.442;2023-04-29T07:50:42;54.38;;;34.08;;
23608;SDS011;11982;50.810;4.442;2023-04-29T07:53:08;60.83;;;35.13;;
23608;SDS011;11982;50.810;4.442;2023-04-29T07:55:35;59.42;;;34.75;;
23608;SDS011;11982;50.810;4.442;2023-04-29T07:58:01;61.20;;;35.58;;
23608;SDS011;11982;50.810;4.442;2023-04-29T08:00:27;59.45;;;35.22;;
23608;SDS011;11982;50.810;4.442;2023-04-29T08:06:15;63.92;;;36.08;;
23608;SDS011;11982;50.810;4.442;2023-04-29T08:08:44;60.15;;;36.05;;
23608;SDS011;11982;50.810;4.442;2023-04-29T08:11:16;69.80;;;36.90;;
23608;SDS011;11982;50.810;4.442;2023-04-29T08:13:45;61.80;;;36.55;;
23608;SDS011;11982;50.810;4.442;2023-04-29T08:16:11;66.65;;;38.15;;
23608;SDS011;11982;50.810;4.442;2023-04-29T08:18:38;64.07;;;36.38;;
23608;SDS011;11982;50.810;4.442;2023-04-29T08:21:04;60.33;;;35.65;;
23608;SDS011;11982;50.810;4.442;2023-04-29T08:23:30;65.03;;;35.45;;
23608;SDS011;11982;50.810;4.442;2023-04-29T08:25:57;63.42;;;35.33;;
23608;SDS011;11982;50.810;4.442;2023-04-29T08:28:22;56.17;;;33.17;;
23608;SDS011;11982;50.810;4.442;2023-04-29T08:30:49;62.00;;;34.63;;
23608;SDS011;11982;50.810;4.442;2023-04-29T08:36:36;57.40;;;33.40;;
23608;SDS011;11982;50.810;4.442;2023-04-29T08:39:03;57.90;;;33.60;;
23608;SDS011;11982;50.810;4.442;2023-04-29T08:41:30;54.72;;;33.40;;
23608;SDS011;11982;50.810;4.442;2023-04-29T08:43:58;50.85;;;29.80;;
23608;SDS011;11982;50.810;4.442;2023-04-29T08:46:24;53.75;;;34.63;;
23608;SDS011;11982;50.810;4.442;2023-04-29T08:48:51;52.17;;;31.05;;
23608;SDS011;11982;50.810;4.442;2023-04-29T08:51:17;56.72;;;32.28;;
23608;SDS011;11982;50.810;4.442;2023-04-29T08:53:43;53.38;;;31.67;;
23608;SDS011;11982;50.810;4.442;2023-04-29T08:56:16;52.65;;;29.80;;
23608;SDS011;11982;50.810;4.442;2023-04-29T09:01:10;51.28;;;28.75;;
23608;SDS011;11982;50.810;4.442;2023-04-29T09:06:58;47.92;;;27.00;;
23608;SDS011;11982;50.810;4.442;2023-04-29T09:09:24;52.97;;;27.65;;
23608;SDS011;11982;50.810;4.442;2023-04-29T09:11:50;49.92;;;29.10;;
23608;SDS011;11982;50.810;4.442;2023-04-29T09:14:17;49.75;;;29.17;;
23608;SDS011;11982;50.810;4.442;2023-04-29T09:16:47;53.15;;;28.05;;
23608;SDS011;11982;50.810;4.442;2023-04-29T09:19:28;40.80;;;26.30;;
23608;SDS011;11982;50.810;4.442;2023-04-29T09:24:24;49.90;;;28.88;;
23608;SDS011;11982;50.810;4.442;2023-04-29T09:26:54;50.38;;;30.10;;
23608;SDS011;11982;50.810;4.442;2023-04-29T09:29:20;53.38;;;31.17;;
23608;SDS011;11982;50.810;4.442;2023-04-29T09:31:46;53.33;;;30.10;;
23608;SDS011;11982;50.810;4.442;2023-04-29T09:34:13;54.80;;;31.80;;
23608;SDS011;11982;50.810;4.442;2023-04-29T09:36:46;55.05;;;31.73;;
23608;SDS011;11982;50.810;4.442;2023-04-29T09:39:18;49.95;;;30.77;;
23608;SDS011;11982;50.810;4.442;2023-04-29T09:44:18;52.72;;;30.20;;
23608;SDS011;11982;50.810;4.442;2023-04-29T09:46:57;45.58;;;29.00;;
23608;SDS011;11982;50.810;4.442;2023-04-29T09:53:43;52.20;;;29.42;;
23608;SDS011;11982;50.810;4.442;2023-04-29T09:56:09;47.05;;;27.90;;
23608;SDS011;11982;50.810;4.442;2023-04-29T09:58:34;48.63;;;29.77;;
23608;SDS011;11982;50.810;4.442;2023-04-29T10:01:04;44.40;;;28.23;;
23608;SDS011;11982;50.810;4.442;2023-04-29T10:06:54;45.22;;;28.20;;
23608;SDS011;11982;50.810;4.442;2023-04-29T10:09:21;41.40;;;26.00;;
23608;SDS011;11982;50.810;4.442;2023-04-29T10:11:49;42.75;;;27.45;;
23608;SDS011;11982;50.810;4.442;2023-04-29T10:14:22;42.50;;;26.88;;
23608;SDS011;11982;50.810;4.442;2023-04-29T10:22:50;38.97;;;26.42;;
23608;SDS011;11982;50.810;4.442;2023-04-29T10:25:18;39.95;;;24.80;;
23608;SDS011;11982;50.810;4.442;2023-04-29T10:27:45;37.45;;;25.40;;
23608;SDS011;11982;50.810;4.442;2023-04-29T10:30:14;38.30;;;24.52;;
23608;SDS011;11982;50.810;4.442;2023-04-29T10:32:43;32.35;;;21.23;;
23608;SDS011;11982;50.810;4.442;2023-04-29T10:35:11;33.70;;;22.35;;
23608;SDS011;11982;50.810;4.442;2023-04-29T10:37:38;36.75;;;23.63;;
23608;SDS011;11982;50.810;4.442;2023-04-29T10:42:44;37.10;;;23.10;;
23608;SDS011;11982;50.810;4.442;2023-04-29T10:45:17;34.42;;;23.00;;
23608;SDS011;11982;50.810;4.442;2023-04-29T10:53:22;36.35;;;23.48;;
23608;SDS011;11982;50.810;4.442;2023-04-29T10:55:48;33.58;;;21.77;;
23608;SDS011;11982;50.810;4.442;2023-04-29T10:58:34;36.22;;;23.20;;
23608;SDS011;11982;50.810;4.442;2023-04-29T11:01:03;33.42;;;22.25;;
23608;SDS011;11982;50.810;4.442;2023-04-29T11:03:45;32.72;;;23.35;;
23608;SDS011;11982;50.810;4.442;2023-04-29T11:06:20;35.75;;;22.73;;
23608;SDS011;11982;50.810;4.442;2023-04-29T11:08:58;35.90;;;23.23;;
23608;SDS011;11982;50.810;4.442;2023-04-29T11:14:07;35.40;;;23.35;;
23608;SDS011;11982;50.810;4.442;2023-04-29T11:16:36;35.28;;;22.42;;
23608;SDS011;11982;50.810;4.442;2023-04-29T11:19:02;32.95;;;22.73;;
23608;SDS011;11982;50.810;4.442;2023-04-29T11:21:29;32.00;;;20.77;;
23608;SDS011;11982;50.810;4.442;2023-04-29T11:23:56;33.30;;;23.20;;
23608;SDS011;11982;50.810;4.442;2023-04-29T11:26:23;33.00;;;23.17;;
23608;SDS011;11982;50.810;4.442;2023-04-29T11:28:48;31.17;;;20.45;;
23608;SDS011;11982;50.810;4.442;2023-04-29T11:31:16;41.28;;;21.55;;
23608;SDS011;11982;50.810;4.442;2023-04-29T11:33:42;33.92;;;21.33;;
23608;SDS011;11982;50.810;4.442;2023-04-29T11:36:08;31.10;;;21.10;;
23608;SDS011;11982;50.810;4.442;2023-04-29T11:38:37;28.58;;;19.70;;
23608;SDS011;11982;50.810;4.442;2023-04-29T11:41:05;30.00;;;19.70;;
23608;SDS011;11982;50.810;4.442;2023-04-29T11:43:31;26.58;;;19.55;;
23608;SDS011;11982;50.810;4.442;2023-04-29T11:45:56;36.97;;;22.60;;
23608;SDS011;11982;50.810;4.442;2023-04-29T11:48:23;29.30;;;19.73;;
23608;SDS011;11982;50.810;4.442;2023-04-29T11:54:11;27.60;;;18.80;;
23608;SDS011;11982;50.810;4.442;2023-04-29T11:56:37;25.05;;;18.58;;
23608;SDS011;11982;50.810;4.442;2023-04-29T11:59:03;23.00;;;17.60;;
23608;SDS011;11982;50.810;4.442;2023-04-29T12:01:32;26.38;;;17.77;;
23608;SDS011;11982;50.810;4.442;2023-04-29T12:03:57;31.02;;;20.08;;
23608;SDS011;11982;50.810;4.442;2023-04-29T12:06:26;25.65;;;17.92;;
23608;SDS011;11982;50.810;4.442;2023-04-29T12:08:53;24.52;;;18.70;;
23608;SDS011;11982;50.810;4.442;2023-04-29T12:11:19;31.25;;;19.20;;
23608;SDS011;11982;50.810;4.442;2023-04-29T12:13:45;26.50;;;18.33;;
23608;SDS011;11982;50.810;4.442;2023-04-29T12:16:11;22.92;;;17.23;;
23608;SDS011;11982;50.810;4.442;2023-04-29T12:18:37;24.75;;;16.92;;
23608;SDS011;11982;50.810;4.442;2023-04-29T12:24:24;21.98;;;16.33;;
23608;SDS011;11982;50.810;4.442;2023-04-29T12:26:50;24.70;;;17.00;;
23608;SDS011;11982;50.810;4.442;2023-04-29T12:29:20;19.58;;;14.40;;
23608;SDS011;11982;50.810;4.442;2023-04-29T12:31:47;19.85;;;14.57;;
23608;SDS011;11982;50.810;4.442;2023-04-29T12:34:13;23.50;;;14.43;;
23608;SDS011;11982;50.810;4.442;2023-04-29T12:36:42;22.23;;;12.52;;
23608;SDS011;11982;50.810;4.442;2023-04-29T12:39:12;18.48;;;12.45;;
23608;SDS011;11982;50.810;4.442;2023-04-29T12:41:40;17.20;;;11.00;;
23608;SDS011;11982;50.810;4.442;2023-04-29T12:44:07;15.18;;;11.63;;
23608;SDS011;11982;50.810;4.442;2023-04-29T12:46:36;15.43;;;11.38;;
23608;SDS011;11982;50.810;4.442;2023-04-29T12:49:04;19.13;;;13.20;;
23608;SDS011;11982;50.810;4.442;2023-04-29T12:54:55;20.05;;;13.88;;
23608;SDS011;11982;50.810;4.442;2023-04-29T12:57:21;18.42;;;13.23;;
23608;SDS011;11982;50.810;4.442;2023-04-29T12:59:49;18.38;;;12.95;;
23608;SDS011;11982;50.810;4.442;2023-04-29T13:02:14;18.00;;;12.70;;
23608;SDS011;11982;50.810;4.442;2023-04-29T13:04:40;17.98;;;12.82;;
23608;SDS011;11982;50.810;4.442;2023-04-29T13:07:06;20.95;;;13.98;;
23608;SDS011;11982;50.810;4.442;2023-04-29T13:09:31;21.80;;;14.75;;
23608;SDS011;11982;50.810;4.442;2023-04-29T13:11:58;20.92;;;14.15;;
23608;SDS011;11982;50.810;4.442;2023-04-29T13:14:23;20.08;;;14.18;;
23608;SDS011;11982;50.810;4.442;2023-04-29T13:16:49;25.13;;;14.70;;
23608;SDS011;11982;50.810;4.442;2023-04-29T13:19:15;22.08;;;14.82;;
23608;SDS011;11982;50.810;4.442;2023-04-29T13:25:03;19.48;;;14.30;;
23608;SDS011;11982;50.810;4.442;2023-04-29T13:27:29;19.73;;;13.93;;
23608;SDS011;11982;50.810;4.442;2023-04-29T13:29:55;19.98;;;14.63;;
23608;SDS011;11982;50.810;4.442;2023-04-29T13:32:21;19.85;;;14.15;;
23608;SDS011;11982;50.810;4.442;2023-04-29T13:34:49;17.50;;;13.93;;
23608;SDS011;11982;50.810;4.442;2023-04-29T13:37:14;20.25;;;14.88;;
23608;SDS011;11982;50.810;4.442;2023-04-29T13:39:41;19.38;;;13.73;;
23608;SDS011;11982;50.810;4.442;2023-04-29T13:42:07;16.73;;;12.85;;
23608;SDS011;11982;50.810;4.442;2023-04-29T13:44:32;21.80;;;14.98;;
23608;SDS011;11982;50.810;4.442;2023-04-29T13:46:59;18.70;;;13.65;;
23608;SDS011;11982;50.810;4.442;2023-04-29T13:49:25;17.17;;;13.60;;
23608;SDS011;11982;50.810;4.442;2023-04-29T13:55:13;15.80;;;12.82;;
23608;SDS011;11982;50.810;4.442;2023-04-29T13:57:38;19.73;;;13.05;;
23608;SDS011;11982;50.810;4.442;2023-04-29T14:00:05;19.38;;;12.65;;
23608;SDS011;11982;50.810;4.442;2023-04-29T14:02:33;18.25;;;13.18;;
23608;SDS011;11982;50.810;4.442;2023-04-29T14:04:59;18.42;;;13.55;;
23608;SDS011;11982;50.810;4.442;2023-04-29T14:10:46;16.30;;;13.07;;
23608;SDS011;11982;50.810;4.442;2023-04-29T14:13:12;17.02;;;13.18;;
23608;SDS011;11982;50.810;4.442;2023-04-29T14:15:37;17.05;;;13.43;;
23608;SDS011;11982;50.810;4.442;2023-04-29T14:18:03;20.35;;;14.13;;
23608;SDS011;11982;50.810;4.442;2023-04-29T14:20:29;19.02;;;14.13;;
23608;SDS011;11982;50.810;4.442;2023-04-29T14:22:54;18.45;;;13.65;;
23608;SDS011;11982;50.810;4.442;2023-04-29T14:25:20;18.13;;;14.18;;
23608;SDS011;11982;50.810;4.442;2023-04-29T14:27:46;17.20;;;13.40;;
23608;SDS011;11982;50.810;4.442;2023-04-29T14:30:13;17.75;;;14.95;;
23608;SDS011;11982;50.810;4.442;2023-04-29T14:32:38;18.42;;;15.27;;
23608;SDS011;11982;50.810;4.442;2023-04-29T14:35:04;19.27;;;14.55;;
23608;SDS011;11982;50.810;4.442;2023-04-29T14:40:52;20.05;;;15.13;;
23608;SDS011;11982;50.810;4.442;2023-04-29T14:43:18;21.85;;;15.35;;
23608;SDS011;11982;50.810;4.442;2023-04-29T14:45:43;22.00;;;15.30;;
23608;SDS011;11982;50.810;4.442;2023-04-29T14:48:10;22.58;;;14.65;;
23608;SDS011;11982;50.810;4.442;2023-04-29T14:50:35;19.65;;;14.35;;
23608;SDS011;11982;50.810;4.442;2023-04-29T14:56:23;21.90;;;16.77;;
23608;SDS011;11982;50.810;4.442;2023-04-29T14:58:50;19.23;;;14.65;;
23608;SDS011;11982;50.810;4.442;2023-04-29T15:01:15;19.38;;;15.13;;
23608;SDS011;11982;50.810;4.442;2023-04-29T15:03:41;22.88;;;15.55;;
23608;SDS011;11982;50.810;4.442;2023-04-29T15:06:07;25.02;;;14.10;;
23608;SDS011;11982;50.810;4.442;2023-04-29T15:08:32;20.48;;;14.68;;
23608;SDS011;11982;50.810;4.442;2023-04-29T15:10:58;20.20;;;15.45;;
23608;SDS011;11982;50.810;4.442;2023-04-29T15:13:24;22.85;;;14.90;;
23608;SDS011;11982;50.810;4.442;2023-04-29T15:15:49;17.55;;;13.65;;
23608;SDS011;11982;50.810;4.442;2023-04-29T15:18:15;21.20;;;15.05;;
23608;SDS011;11982;50.810;4.442;2023-04-29T15:20:41;20.73;;;15.10;;
23608;SDS011;11982;50.810;4.442;2023-04-29T15:26:29;19.90;;;15.07;;
23608;SDS011;11982;50.810;4.442;2023-04-29T15:28:56;19.65;;;14.98;;
23608;SDS011;11982;50.810;4.442;2023-04-29T15:31:22;20.77;;;13.27;;
23608;SDS011;11982;50.810;4.442;2023-04-29T15:33:47;20.65;;;15.07;;
23608;SDS011;11982;50.810;4.442;2023-04-29T15:36:17;18.88;;;14.38;;
23608;SDS011;11982;50.810;4.442;2023-04-29T15:38:43;20.58;;;14.43;;
23608;SDS011;11982;50.810;4.442;2023-04-29T15:41:08;25.33;;;14.60;;
23608;SDS011;11982;50.810;4.442;2023-04-29T15:43:34;21.10;;;14.27;;
23608;SDS011;11982;50.810;4.442;2023-04-29T15:46:00;22.92;;;13.75;;
23608;SDS011;11982;50.810;4.442;2023-04-29T15:48:25;21.23;;;13.82;;
23608;SDS011;11982;50.810;4.442;2023-04-29T15:50:51;20.00;;;13.32;;
23608;SDS011;11982;50.810;4.442;2023-04-29T15:56:39;20.83;;;12.65;;
23608;SDS011;11982;50.810;4.442;2023-04-29T15:59:05;21.40;;;14.45;;
23608;SDS011;11982;50.810;4.442;2023-04-29T16:01:31;20.75;;;15.20;;
23608;SDS011;11982;50.810;4.442;2023-04-29T16:03:56;22.10;;;14.70;;
23608;SDS011;11982;50.810;4.442;2023-04-29T16:06:22;18.92;;;13.98;;
23608;SDS011;11982;50.810;4.442;2023-04-29T16:12:09;19.10;;;13.45;;
23608;SDS011;11982;50.810;4.442;2023-04-29T16:14:37;20.15;;;14.70;;
23608;SDS011;11982;50.810;4.442;2023-04-29T16:17:02;19.45;;;13.70;;
23608;SDS011;11982;50.810;4.442;2023-04-29T16:19:28;17.75;;;13.02;;
23608;SDS011;11982;50.810;4.442;2023-04-29T16:21:54;20.00;;;14.40;;
23608;SDS011;11982;50.810;4.442;2023-04-29T16:24:19;23.05;;;14.05;;
23608;SDS011;11982;50.810;4.442;2023-04-29T16:26:45;21.15;;;13.02;;
23608;SDS011;11982;50.810;4.442;2023-04-29T16:29:12;20.30;;;13.70;;
23608;SDS011;11982;50.810;4.442;2023-04-29T16:31:38;15.68;;;11.55;;
23608;SDS011;11982;50.810;4.442;2023-04-29T16:34:03;18.25;;;12.88;;
23608;SDS011;11982;50.810;4.442;2023-04-29T16:36:30;21.05;;;13.20;;
23608;SDS011;11982;50.810;4.442;2023-04-29T16:42:18;20.70;;;11.55;;
23608;SDS011;11982;50.810;4.442;2023-04-29T16:44:44;17.58;;;12.40;;
23608;SDS011;11982;50.810;4.442;2023-04-29T16:47:10;18.17;;;12.75;;
23608;SDS011;11982;50.810;4.442;2023-04-29T16:49:36;17.05;;;12.30;;
23608;SDS011;11982;50.810;4.442;2023-04-29T16:52:02;15.88;;;11.85;;
23608;SDS011;11982;50.810;4.442;2023-04-29T16:57:50;20.67;;;12.15;;
23608;SDS011;11982;50.810;4.442;2023-04-29T17:00:16;20.17;;;13.02;;
23608;SDS011;11982;50.810;4.442;2023-04-29T17:02:42;16.42;;;11.45;;